PWSweather.com
Personal Weather Stations
Station Observations
CARNOUSTIE
Pambride, CarnoustieGB DD7 6DY

PambrideCarnoustieGB DD7 6DY

Lat: 56.50889, Lon: -2.7051

Elevation: 105

Station Type: Oregon Scientific WMR200

www.carnoustieweather.co.uk

High Low Average
Temperature 75.0°F23.9°C 52.9°F11.6°C 60.4°F15.8°C
Dew Point 58.2°F14.6°C 50.0°F10.0°C 53.1°F11.7°C
Winds 12.7 mph 20.4 kmh 1.2 mph 1.9 kmh 5.0 mph SE8.0 kmh SE
Wind Gusts 15.0 mph24.1 kmh 2.3 mph3.7 kmh 6.0 mph9.7 kmh
Humidity 91% 53% 78%
Pressure 30.09 in1019.0 mb 30.03 in1016.9 mb -
Precipitation 0.00 in0.0 mm - -
Hour Temp Dew Point Humidity Winds Wind Gusts Pressure Precip Precip Rate Daily Precip Total
07:20 AM 56.3°F13.5°C 52.8°F11.6°C 88% 2.3 mph WSW3.7 kmh WSW 3.5 mph5.6 kmh 30.09 in1019.0 mb - 0.00 in0.0 mm 0.00 in0.0 mm
07:30 AM 56.7°F13.7°C 52.8°F11.6°C 87% 1.2 mph WSW1.9 kmh WSW 2.3 mph3.7 kmh 30.09 in1019.0 mb - 0.00 in0.0 mm 0.00 in0.0 mm
07:40 AM 57.6°F14.2°C 53.4°F11.9°C 86% 3.5 mph W5.6 kmh W 3.5 mph5.6 kmh 30.09 in1019.0 mb - 0.00 in0.0 mm 0.00 in0.0 mm
07:50 AM 58.5°F14.7°C 53.6°F12.0°C 84% 3.5 mph WSW5.6 kmh WSW 6.9 mph11.1 kmh 30.09 in1019.0 mb - 0.00 in0.0 mm 0.00 in0.0 mm
08:00 AM 59.3°F15.2°C 54.2°F12.3°C 83% 3.5 mph WSW5.6 kmh WSW 4.6 mph7.4 kmh 30.09 in1019.0 mb - 0.00 in0.0 mm 0.00 in0.0 mm
08:10 AM 59.9°F15.5°C 54.1°F12.3°C 81% 3.5 mph S5.6 kmh S 4.6 mph7.4 kmh 30.09 in1019.0 mb - 0.00 in0.0 mm 0.00 in0.0 mm
08:20 AM 60.6°F15.9°C 54.0°F12.2°C 79% 3.5 mph WSW5.6 kmh WSW 3.5 mph5.6 kmh 30.09 in1019.0 mb - 0.00 in0.0 mm 0.00 in0.0 mm
08:30 AM 61.5°F16.4°C 54.9°F12.7°C 79% 3.5 mph S5.6 kmh S 4.6 mph7.4 kmh 30.09 in1019.0 mb - 0.00 in0.0 mm 0.00 in0.0 mm
08:40 AM 62.1°F16.7°C 54.8°F12.7°C 77% 5.8 mph WSW9.3 kmh WSW 5.8 mph9.3 kmh 30.09 in1019.0 mb - 0.00 in0.0 mm 0.00 in0.0 mm
08:50 AM 61.7°F16.5°C 54.1°F12.3°C 76% 2.3 mph SSW3.7 kmh SSW 3.5 mph5.6 kmh 30.09 in1019.0 mb - 0.00 in0.0 mm 0.00 in0.0 mm
09:00 AM 61.5°F16.4°C 53.5°F11.9°C 75% 3.5 mph SW5.6 kmh SW 6.9 mph11.1 kmh 30.09 in1019.0 mb - 0.00 in0.0 mm 0.00 in0.0 mm
09:10 AM 61.4°F16.3°C 53.0°F11.7°C 74% 4.6 mph SW7.4 kmh SW 4.6 mph7.4 kmh 30.09 in1019.0 mb - 0.00 in0.0 mm 0.00 in0.0 mm
09:20 AM 61.1°F16.2°C 53.1°F11.7°C 75% 4.6 mph WSW7.4 kmh WSW 5.8 mph9.3 kmh 30.09 in1019.0 mb - 0.00 in0.0 mm 0.00 in0.0 mm
09:30 AM 60.3°F15.7°C 52.7°F11.5°C 76% 3.5 mph SSW5.6 kmh SSW 5.8 mph9.3 kmh 30.09 in1019.0 mb - 0.00 in0.0 mm 0.00 in0.0 mm
09:40 AM 59.2°F15.1°C 51.3°F10.7°C 75% 4.6 mph SW7.4 kmh SW 4.6 mph7.4 kmh 30.09 in1019.0 mb - 0.00 in0.0 mm 0.00 in0.0 mm
09:50 AM 59.1°F15.1°C 51.9°F11.1°C 77% 2.3 mph SE3.7 kmh SE 2.3 mph3.7 kmh 30.09 in1019.0 mb - 0.00 in0.0 mm 0.00 in0.0 mm
10:00 AM 59.5°F15.3°C 52.7°F11.5°C 78% 4.6 mph S7.4 kmh S 5.8 mph9.3 kmh 30.09 in1019.0 mb - 0.00 in0.0 mm 0.00 in0.0 mm
10:10 AM 59.4°F15.2°C 52.1°F11.2°C 77% 3.5 mph S5.6 kmh S 4.6 mph7.4 kmh 30.09 in1019.0 mb - 0.00 in0.0 mm 0.00 in0.0 mm
10:20 AM 60.3°F15.7°C 52.7°F11.5°C 76% 3.5 mph S5.6 kmh S 6.9 mph11.1 kmh 30.09 in1019.0 mb - 0.00 in0.0 mm 0.00 in0.0 mm
10:30 AM 61.3°F16.3°C 52.9°F11.6°C 74% 3.5 mph S5.6 kmh S 5.8 mph9.3 kmh 30.09 in1019.0 mb - 0.00 in0.0 mm 0.00 in0.0 mm
10:40 AM 62.8°F17.1°C 54.4°F12.4°C 74% 4.6 mph SE7.4 kmh SE 5.8 mph9.3 kmh 30.09 in1019.0 mb - 0.00 in0.0 mm 0.00 in0.0 mm
10:50 AM 64.5°F18.1°C 55.6°F13.1°C 73% 3.5 mph S5.6 kmh S 5.8 mph9.3 kmh 30.09 in1019.0 mb - 0.00 in0.0 mm 0.00 in0.0 mm
11:00 AM 66.1°F18.9°C 56.5°F13.6°C 71% 4.6 mph S7.4 kmh S 5.8 mph9.3 kmh 30.09 in1019.0 mb - 0.00 in0.0 mm 0.00 in0.0 mm
11:10 AM 66.7°F19.3°C 55.8°F13.2°C 68% 4.6 mph SE7.4 kmh SE 8.1 mph13.0 kmh 30.09 in1019.0 mb - 0.00 in0.0 mm 0.00 in0.0 mm
11:20 AM 67.1°F19.5°C 55.8°F13.2°C 67% 4.6 mph S7.4 kmh S 8.1 mph13.0 kmh 30.09 in1019.0 mb - 0.00 in0.0 mm 0.00 in0.0 mm
11:30 AM 67.7°F19.8°C 56.4°F13.6°C 67% 4.6 mph S7.4 kmh S 6.9 mph11.1 kmh 30.09 in1019.0 mb - 0.00 in0.0 mm 0.00 in0.0 mm
11:40 AM 69.4°F20.8°C 56.7°F13.7°C 64% 4.6 mph S7.4 kmh S 4.6 mph7.4 kmh 30.09 in1019.0 mb - 0.00 in0.0 mm 0.00 in0.0 mm
11:50 AM 69.6°F20.9°C 57.3°F14.1°C 65% 3.5 mph S5.6 kmh S 3.5 mph5.6 kmh 30.09 in1019.0 mb - 0.00 in0.0 mm 0.00 in0.0 mm
12:00 PM 71.7°F22.1°C 58.0°F14.4°C 62% 2.3 mph SSE3.7 kmh SSE 3.5 mph5.6 kmh 30.09 in1019.0 mb - 0.00 in0.0 mm 0.00 in0.0 mm
12:10 PM 72.1°F22.3°C 57.9°F14.4°C 61% 4.6 mph SSE7.4 kmh SSE 5.8 mph9.3 kmh 30.09 in1019.0 mb - 0.00 in0.0 mm 0.00 in0.0 mm
12:20 PM 72.9°F22.7°C 57.2°F14.0°C 58% 3.5 mph S5.6 kmh S 5.8 mph9.3 kmh 30.07 in1018.3 mb - 0.00 in0.0 mm 0.00 in0.0 mm
12:30 PM 73.1°F22.8°C 57.9°F14.4°C 59% 3.5 mph SSE5.6 kmh SSE 3.5 mph5.6 kmh 30.06 in1017.9 mb - 0.00 in0.0 mm 0.00 in0.0 mm
12:40 PM 75.0°F23.9°C 58.2°F14.6°C 56% 4.6 mph SSE7.4 kmh SSE 6.9 mph11.1 kmh 30.06 in1017.9 mb - 0.00 in0.0 mm 0.00 in0.0 mm
12:50 PM 74.3°F23.5°C 56.0°F13.3°C 53% 4.6 mph S7.4 kmh S 5.8 mph9.3 kmh 30.06 in1017.9 mb - 0.00 in0.0 mm 0.00 in0.0 mm
01:00 PM 73.9°F23.3°C 57.3°F14.1°C 56% 3.5 mph SSW5.6 kmh SSW 4.6 mph7.4 kmh 30.06 in1017.9 mb - 0.00 in0.0 mm 0.00 in0.0 mm
01:10 PM 72.1°F22.3°C 56.5°F13.6°C 58% 4.6 mph SSE7.4 kmh SSE 6.9 mph11.1 kmh 30.06 in1017.9 mb - 0.00 in0.0 mm 0.00 in0.0 mm
01:20 PM 72.0°F22.2°C 56.8°F13.8°C 59% 5.8 mph S9.3 kmh S 5.8 mph9.3 kmh 30.06 in1017.9 mb - 0.00 in0.0 mm 0.00 in0.0 mm
01:30 PM 71.1°F21.7°C 56.5°F13.6°C 60% 3.5 mph SSW5.6 kmh SSW 5.8 mph9.3 kmh 30.06 in1017.9 mb - 0.00 in0.0 mm 0.00 in0.0 mm
01:40 PM 68.2°F20.1°C 55.2°F12.9°C 63% 3.5 mph S5.6 kmh S 4.6 mph7.4 kmh 30.06 in1017.9 mb - 0.00 in0.0 mm 0.00 in0.0 mm
01:50 PM 66.7°F19.3°C 54.6°F12.6°C 65% 3.5 mph SSE5.6 kmh SSE 4.6 mph7.4 kmh 30.06 in1017.9 mb - 0.00 in0.0 mm 0.00 in0.0 mm
02:00 PM 65.8°F18.8°C 54.6°F12.6°C 67% 3.5 mph S5.6 kmh S 4.6 mph7.4 kmh 30.06 in1017.9 mb - 0.00 in0.0 mm 0.00 in0.0 mm
02:10 PM 65.5°F18.6°C 54.3°F12.4°C 67% 3.5 mph S5.6 kmh S 4.6 mph7.4 kmh 30.06 in1017.9 mb - 0.00 in0.0 mm 0.00 in0.0 mm
02:20 PM 65.7°F18.7°C 54.8°F12.7°C 68% 2.3 mph SE3.7 kmh SE 3.5 mph5.6 kmh 30.06 in1017.9 mb - 0.00 in0.0 mm 0.00 in0.0 mm
02:30 PM 65.7°F18.7°C 55.2°F12.9°C 69% 2.3 mph SE3.7 kmh SE 4.6 mph7.4 kmh 30.06 in1017.9 mb - 0.00 in0.0 mm 0.00 in0.0 mm
02:40 PM 64.6°F18.1°C 55.0°F12.8°C 71% 3.5 mph SE5.6 kmh SE 4.6 mph7.4 kmh 30.06 in1017.9 mb - 0.00 in0.0 mm 0.00 in0.0 mm
02:50 PM 63.9°F17.7°C 54.7°F12.6°C 72% 3.5 mph S5.6 kmh S 3.5 mph5.6 kmh 30.06 in1017.9 mb - 0.00 in0.0 mm 0.00 in0.0 mm
03:00 PM 63.3°F17.4°C 54.5°F12.5°C 73% 3.5 mph SSE5.6 kmh SSE 5.8 mph9.3 kmh 30.06 in1017.9 mb - 0.00 in0.0 mm 0.00 in0.0 mm
03:10 PM 63.2°F17.3°C 54.4°F12.4°C 73% 4.6 mph SSW7.4 kmh SSW 4.6 mph7.4 kmh 30.06 in1017.9 mb - 0.00 in0.0 mm 0.00 in0.0 mm
03:20 PM 63.5°F17.5°C 54.3°F12.4°C 72% 4.6 mph SE7.4 kmh SE 6.9 mph11.1 kmh 30.04 in1017.3 mb - 0.00 in0.0 mm 0.00 in0.0 mm
03:30 PM 64.0°F17.8°C 54.8°F12.7°C 72% 3.5 mph S5.6 kmh S 5.8 mph9.3 kmh 30.03 in1016.9 mb - 0.00 in0.0 mm 0.00 in0.0 mm
03:40 PM 63.5°F17.5°C 54.7°F12.6°C 73% 4.6 mph SE7.4 kmh SE 5.8 mph9.3 kmh 30.06 in1017.9 mb - 0.00 in0.0 mm 0.00 in0.0 mm
03:50 PM 63.1°F17.3°C 54.7°F12.6°C 74% 4.6 mph SE7.4 kmh SE 4.6 mph7.4 kmh 30.06 in1017.9 mb - 0.00 in0.0 mm 0.00 in0.0 mm
04:00 PM 62.6°F17.0°C 54.6°F12.6°C 75% 4.6 mph SE7.4 kmh SE 5.8 mph9.3 kmh 30.06 in1017.9 mb - 0.00 in0.0 mm 0.00 in0.0 mm
04:10 PM 62.1°F16.7°C 54.8°F12.7°C 77% 3.5 mph SE5.6 kmh SE 4.6 mph7.4 kmh 30.06 in1017.9 mb - 0.00 in0.0 mm 0.00 in0.0 mm
04:20 PM 61.2°F16.2°C 53.9°F12.2°C 77% 4.6 mph SE7.4 kmh SE 5.8 mph9.3 kmh 30.06 in1017.9 mb - 0.00 in0.0 mm 0.00 in0.0 mm
04:30 PM 60.4°F15.8°C 53.5°F11.9°C 78% 3.5 mph SE5.6 kmh SE 3.5 mph5.6 kmh 30.06 in1017.9 mb - 0.00 in0.0 mm 0.00 in0.0 mm
04:40 PM 60.0°F15.6°C 53.5°F11.9°C 79% 4.6 mph SE7.4 kmh SE 6.9 mph11.1 kmh 30.06 in1017.9 mb - 0.00 in0.0 mm 0.00 in0.0 mm
04:50 PM 59.5°F15.3°C 53.4°F11.9°C 80% 3.5 mph ESE5.6 kmh ESE 4.6 mph7.4 kmh 30.06 in1017.9 mb - 0.00 in0.0 mm 0.00 in0.0 mm
05:00 PM 58.5°F14.7°C 52.6°F11.4°C 81% 9.2 mph ENE14.8 kmh ENE 11.5 mph18.5 kmh 30.06 in1017.9 mb - 0.00 in0.0 mm 0.00 in0.0 mm
05:10 PM 57.5°F14.2°C 51.7°F10.9°C 81% 9.2 mph NE14.8 kmh NE 13.8 mph22.2 kmh 30.06 in1017.9 mb - 0.00 in0.0 mm 0.00 in0.0 mm
05:20 PM 55.9°F13.3°C 50.9°F10.5°C 83% 10.4 mph ENE16.7 kmh ENE 13.8 mph22.2 kmh 30.06 in1017.9 mb - 0.00 in0.0 mm 0.00 in0.0 mm
05:30 PM 55.6°F13.1°C 51.1°F10.6°C 85% 11.5 mph ENE18.5 kmh ENE 13.8 mph22.2 kmh 30.06 in1017.9 mb - 0.00 in0.0 mm 0.00 in0.0 mm
05:40 PM 57.6°F14.2°C 53.8°F12.1°C 87% 12.7 mph E20.4 kmh E 15.0 mph24.1 kmh 30.06 in1017.9 mb - 0.00 in0.0 mm 0.00 in0.0 mm
05:50 PM 59.2°F15.1°C 53.4°F11.9°C 81% 9.2 mph N14.8 kmh N 11.5 mph18.5 kmh 30.06 in1017.9 mb - 0.00 in0.0 mm 0.00 in0.0 mm
06:00 PM 58.1°F14.5°C 52.0°F11.1°C 80% 11.5 mph ENE18.5 kmh ENE 12.7 mph20.4 kmh 30.06 in1017.9 mb - 0.00 in0.0 mm 0.00 in0.0 mm
06:10 PM 56.8°F13.8°C 50.6°F10.3°C 80% 11.5 mph ENE18.5 kmh ENE 12.7 mph20.4 kmh 30.06 in1017.9 mb - 0.00 in0.0 mm 0.00 in0.0 mm
06:20 PM 56.5°F13.6°C 51.1°F10.6°C 82% 8.1 mph E13.0 kmh E 9.2 mph14.8 kmh 30.06 in1017.9 mb - 0.00 in0.0 mm 0.00 in0.0 mm
06:30 PM 56.5°F13.6°C 51.1°F10.6°C 82% 8.1 mph NE13.0 kmh NE 12.7 mph20.4 kmh 30.06 in1017.9 mb - 0.00 in0.0 mm 0.00 in0.0 mm
06:40 PM 56.1°F13.4°C 50.6°F10.3°C 82% 8.1 mph NE13.0 kmh NE 9.2 mph14.8 kmh 30.06 in1017.9 mb - 0.00 in0.0 mm 0.00 in0.0 mm
06:50 PM 55.9°F13.3°C 50.9°F10.5°C 83% 5.8 mph ENE9.3 kmh ENE 8.1 mph13.0 kmh 30.06 in1017.9 mb - 0.00 in0.0 mm 0.00 in0.0 mm
07:00 PM 55.9°F13.3°C 51.2°F10.7°C 84% 6.9 mph E11.1 kmh E 8.1 mph13.0 kmh 30.06 in1017.9 mb - 0.00 in0.0 mm 0.00 in0.0 mm
07:10 PM 55.8°F13.2°C 51.0°F10.6°C 84% 8.1 mph ENE13.0 kmh ENE 9.2 mph14.8 kmh 30.06 in1017.9 mb - 0.00 in0.0 mm 0.00 in0.0 mm
07:20 PM 55.4°F13.0°C 51.0°F10.6°C 85% 6.9 mph E11.1 kmh E 8.1 mph13.0 kmh 30.08 in1018.6 mb - 0.00 in0.0 mm 0.00 in0.0 mm
07:30 PM 55.6°F13.1°C 51.1°F10.6°C 85% 6.9 mph ENE11.1 kmh ENE 8.1 mph13.0 kmh 30.09 in1019.0 mb - 0.00 in0.0 mm 0.00 in0.0 mm
07:40 PM 55.4°F13.0°C 51.0°F10.6°C 85% 5.8 mph ENE9.3 kmh ENE 9.2 mph14.8 kmh 30.06 in1017.9 mb - 0.00 in0.0 mm 0.00 in0.0 mm
07:50 PM 55.0°F12.8°C 50.6°F10.3°C 85% 5.8 mph E9.3 kmh E 6.9 mph11.1 kmh 30.08 in1018.6 mb - 0.00 in0.0 mm 0.00 in0.0 mm
08:00 PM 54.8°F12.7°C 50.7°F10.4°C 86% 5.8 mph E9.3 kmh E 8.1 mph13.0 kmh 30.09 in1019.0 mb - 0.00 in0.0 mm 0.00 in0.0 mm
08:10 PM 54.5°F12.5°C 50.7°F10.4°C 87% 5.8 mph E9.3 kmh E 8.1 mph13.0 kmh 30.06 in1017.9 mb - 0.00 in0.0 mm 0.00 in0.0 mm
08:20 PM 54.3°F12.4°C 50.5°F10.3°C 87% 6.9 mph NE11.1 kmh NE 8.1 mph13.0 kmh 30.06 in1017.9 mb - 0.00 in0.0 mm 0.00 in0.0 mm
08:30 PM 54.1°F12.3°C 50.7°F10.4°C 88% 5.8 mph NE9.3 kmh NE 6.9 mph11.1 kmh 30.06 in1017.9 mb - 0.00 in0.0 mm 0.00 in0.0 mm
08:40 PM 54.0°F12.2°C 50.8°F10.4°C 89% 5.8 mph NE9.3 kmh NE 6.9 mph11.1 kmh 30.09 in1019.0 mb - 0.00 in0.0 mm 0.00 in0.0 mm
08:50 PM 53.8°F12.1°C 50.6°F10.3°C 89% 3.5 mph E5.6 kmh E 4.6 mph7.4 kmh 30.09 in1019.0 mb - 0.00 in0.0 mm 0.00 in0.0 mm
09:00 PM 53.8°F12.1°C 50.6°F10.3°C 89% 3.5 mph E5.6 kmh E 4.6 mph7.4 kmh 30.09 in1019.0 mb - 0.00 in0.0 mm 0.00 in0.0 mm
09:10 PM 53.8°F12.1°C 50.6°F10.3°C 89% 3.5 mph NE5.6 kmh NE 4.6 mph7.4 kmh 30.09 in1019.0 mb - 0.00 in0.0 mm 0.00 in0.0 mm
09:20 PM 53.8°F12.1°C 50.6°F10.3°C 89% 3.5 mph NE5.6 kmh NE 4.6 mph7.4 kmh 30.09 in1019.0 mb - 0.00 in0.0 mm 0.00 in0.0 mm
09:30 PM 53.8°F12.1°C 50.9°F10.5°C 90% 5.8 mph E9.3 kmh E 8.1 mph13.0 kmh 30.09 in1019.0 mb - 0.00 in0.0 mm 0.00 in0.0 mm
09:40 PM 53.8°F12.1°C 50.6°F10.3°C 89% 4.6 mph E7.4 kmh E 4.6 mph7.4 kmh 30.09 in1019.0 mb - 0.00 in0.0 mm 0.00 in0.0 mm
09:50 PM 53.8°F12.1°C 50.9°F10.5°C 90% 2.3 mph ENE3.7 kmh ENE 3.5 mph5.6 kmh 30.09 in1019.0 mb - 0.00 in0.0 mm 0.00 in0.0 mm
10:00 PM 53.6°F12.0°C 50.7°F10.4°C 90% 3.5 mph ENE5.6 kmh ENE 4.6 mph7.4 kmh 30.09 in1019.0 mb - 0.00 in0.0 mm 0.00 in0.0 mm
10:10 PM 53.4°F11.9°C 50.6°F10.3°C 90% 4.6 mph NE7.4 kmh NE 4.6 mph7.4 kmh 30.09 in1019.0 mb - 0.00 in0.0 mm 0.00 in0.0 mm
10:20 PM 53.6°F12.0°C 50.7°F10.4°C 90% 3.5 mph NE5.6 kmh NE 4.6 mph7.4 kmh 30.09 in1019.0 mb - 0.00 in0.0 mm 0.00 in0.0 mm
10:30 PM 53.4°F11.9°C 50.6°F10.3°C 90% 3.5 mph NE5.6 kmh NE 3.5 mph5.6 kmh 30.09 in1019.0 mb - 0.00 in0.0 mm 0.00 in0.0 mm
10:40 PM 53.4°F11.9°C 50.9°F10.5°C 91% 2.3 mph NE3.7 kmh NE 3.5 mph5.6 kmh 30.09 in1019.0 mb - 0.00 in0.0 mm 0.00 in0.0 mm
10:50 PM 53.4°F11.9°C 50.6°F10.3°C 90% 2.3 mph NE3.7 kmh NE 3.5 mph5.6 kmh 30.09 in1019.0 mb - 0.00 in0.0 mm 0.00 in0.0 mm
11:00 PM 53.2°F11.8°C 50.7°F10.4°C 91% 3.5 mph NE5.6 kmh NE 4.6 mph7.4 kmh 30.09 in1019.0 mb - 0.00 in0.0 mm 0.00 in0.0 mm
11:10 PM 53.2°F11.8°C 50.7°F10.4°C 91% 4.6 mph ENE7.4 kmh ENE 5.8 mph9.3 kmh 30.09 in1019.0 mb - 0.00 in0.0 mm 0.00 in0.0 mm
11:20 PM 53.1°F11.7°C 50.2°F10.1°C 90% 4.6 mph E7.4 kmh E 4.6 mph7.4 kmh 30.07 in1018.3 mb - 0.00 in0.0 mm 0.00 in0.0 mm
11:30 PM 52.9°F11.6°C 50.0°F10.0°C 90% 2.3 mph E3.7 kmh E 3.5 mph5.6 kmh 30.06 in1017.9 mb - 0.00 in0.0 mm 0.00 in0.0 mm
11:40 PM 52.9°F11.6°C 50.0°F10.0°C 90% 3.5 mph E5.6 kmh E 3.5 mph5.6 kmh 30.06 in1017.9 mb - 0.00 in0.0 mm 0.00 in0.0 mm
11:50 PM 52.9°F11.6°C 50.0°F10.0°C 90% 3.5 mph NE5.6 kmh NE 4.6 mph7.4 kmh 30.06 in1017.9 mb - 0.00 in0.0 mm 0.00 in0.0 mm